Data for 08/24/2013

Time Sea-Level Adjusted Pressure Absolute Pressure Temperature Relative Humidity Dew Point   
(mb) (inHg) (mb) (inHg) (C) (F) (%) (C) (F)
00:05 1017 30.03 846 24.98 16 60.7 70 10.6 51.1
00:10 1017 30.03 846 24.98 16 60.7 71 10.7 51.3
00:15 1017 30.03 846 24.98 15.9 60.6 71 10.6 51.1
00:20 1017 30.03 846 24.98 15.9 60.7 70 10.6 51
00:25 1017 30.03 846 24.98 16 60.8 70 10.6 51
00:30 1017 30.03 846 24.98 16 60.8 69 10.4 50.7
00:35 1017 30.03 846 24.98 16 60.7 70 10.6 51.1
00:40 1017 30.03 846 24.98 15.9 60.5 70 10.5 50.9
00:45 1017 30.03 846 24.98 15.9 60.5 70 10.4 50.8
00:50 1017 30.03 846 24.98 15.9 60.6 69 10.3 50.5
00:55 1017 30.03 846 24.98 16 60.7 69 10.3 50.6
01:00 1017 30.03 846 24.98 16 60.8 69 10.4 50.7
01:05 1017 30.03 846 24.98 16 60.7 68 10.2 50.4
01:10 1017 30.03 846 24.98 16.1 61 67 9.9 49.9
01:15 1017 30.03 846 24.98 16.3 61.4 66 10 50
01:20 1017 30.03 846 24.98 16.5 61.6 66 10.3 50.5
01:25 1017 30.03 846 24.98 16.5 61.8 66 10.2 50.3
01:30 1017 30.03 846 24.98 16.4 61.5 67 10.4 50.7
01:35 1017 30.03 846 24.98 16.2 61.1 69 10.6 51.1
01:40 1017 30.03 846 24.98 16.1 60.9 72 11 51.8
01:45 1017 30.03 846 24.98 16.1 60.9 73 11.3 52.3
01:50 1017 30.03 846 24.98 15.6 60 74 10.9 51.7
01:55 1017 30.03 846 24.98 15.6 60.1 71 10.4 50.6
02:00 1017 30.03 846 24.98 15.7 60.3 71 10.6 51.1
02:05 1017 30.03 846 24.98 15.7 60.3 71 10.6 51.1
02:10 1017 30.03 846 24.98 15.7 60.2 73 10.8 51.4
02:15 1017 30.03 846 24.98 15.6 60.1 73 10.7 51.3
02:20 1017 30.03 846 24.98 15.6 60.1 73 10.8 51.5
02:25 1017 30.03 846 24.98 15.5 59.9 74 10.9 51.6
02:30 1017 30.03 846 24.98 15.6 60 72 10.5 50.9
02:35 1017 30.03 846 24.98 15.7 60.3 72 10.7 51.2
02:40 1017 30.03 846 24.98 15.7 60.3 72 10.7 51.3
02:45 1017 30.03 846 24.98 15.7 60.2 73 11 51.7
02:50 1017 30.03 846 24.98 15.5 59.9 75 11 51.9
02:55 1017 30.03 846 24.98 15.4 59.7 75 10.9 51.7
03:00 1017 30.03 846 24.98 15.4 59.8 73 10.6 51.1
03:05 1017 30.03 846 24.98 15.6 60 72 10.6 51.1
03:10 1017 30.03 846 24.98 15.7 60.2 72 10.7 51.3
03:15 1017 30.03 846 24.98 15.7 60.2 72 10.7 51.2
03:20 1017 30.03 846 24.98 15.7 60.3 71 10.5 50.8
03:25 1017 30.03 846 24.98 15.8 60.5 70 10.5 50.9
03:30 1017 30.03 846 24.98 15.9 60.7 70 10.5 50.9
03:35 1017 30.03 846 24.98 15.9 60.7 71 10.6 51.1
03:40 1017 30.03 846 24.98 15.8 60.4 72 10.8 51.4
03:45 1017 30.03 846 24.98 15.7 60.3 72 10.7 51.3
03:50 1017 30.03 846 24.98 15.7 60.2 72 10.7 51.2
03:55 1017 30.03 846 24.98 15.6 60.2 71 10.4 50.7
04:00 1017 30.03 846 24.98 15.9 60.6 69 10.3 50.5
04:05 1017 30.03 846 24.98 16.1 60.9 68 10.3 50.5
04:10 1017 30.03 846 24.98 16.2 61.1 68 10.4 50.7
04:15 1017 30.03 846 24.98 16.2 61.1 68 10.2 50.4
04:20 1017 30.03 846 24.98 16.3 61.4 67 10.3 50.5
04:25 1017 30.03 846 24.98 16.3 61.4 66 10 50
04:30 1017 30.03 846 24.98 16.4 61.5 66 10 50
04:35 1017 30.03 846 24.98 16.5 61.6 65 10 50
04:40 1017 30.03 846 24.98 16.5 61.7 66 10.1 50.3
04:45 1017 30.03 846 24.98 16.4 61.6 66 10.1 50.2
04:50 1017 30.03 846 24.98 16.3 61.4 66 10.1 50.2
04:55 1017 30.03 846 24.98 16.2 61.2 66 9.9 49.9
05:00 1017 30.03 846 24.98 16.2 61.2 67 10.1 50.2
05:05 1017 30.03 846 24.98 16.2 61.1 67 10.1 50.1
05:10 1017 30.03 846 24.98 16 60.9 67 10 50
05:15 1017 30.03 846 24.98 16 60.8 67 10 50
05:20 1017 30.03 846 24.98 15.9 60.6 68 10.1 50.1
05:25 1017 30.03 846 24.98 15.9 60.5 68 10 50
05:30 1017 30.03 846 24.98 15.8 60.5 68 10 50
05:35 1017 30.03 846 24.98 15.6 60.2 69 10.1 50.2
05:40 1017 30.03 846 24.98 15.5 59.9 70 10 50.1
05:45 1017 30.03 846 24.98 15.4 59.7 71 10.1 50.2
05:50 1017 30.03 846 24.98 15.3 59.5 71 10.1 50.1
05:55 1017 30.03 846 24.98 15.3 59.5 71 10.1 50.1
06:00 1017 30.03 846 24.98 15.2 59.3 72 10.1 50.2
06:05 1017 30.03 846 24.98 15.1 59.1 72 10 50.1
06:10 1017 30.03 846 24.98 15.1 59.1 71 9.9 49.8
06:15 1017 30.03 846 24.98 15.1 59.2 71 10 50
06:20 1017 30.03 847 25.01 15.1 59.2 71 9.9 49.8
06:25 1017 30.03 847 25.01 15.2 59.3 70 9.8 49.7
06:30 1017 30.03 847 25.01 15.2 59.3 71 9.9 49.8
06:35 1017 30.03 847 25.01 15.1 59.2 70 9.8 49.6
06:40 1017 30.03 847 25.01 15.2 59.4 70 9.9 49.8
06:45 1017 30.03 847 25.01 15.1 59.2 70 9.7 49.5
06:50 1017 30.03 847 25.01 15.2 59.4 70 9.9 49.7
06:55 1017 30.03 847 25.01 15.4 59.7 69 9.9 49.8
07:00 1017 30.03 847 25.01 15.6 60 68 9.8 49.6
07:05 1018 30.06 847 25.01 16 60.8 66 9.8 49.6
07:10 1018 30.06 847 25.01 16.5 61.6 65 9.9 49.8
07:15 1018 30.06 847 25.01 16.8 62.2 65 10.4 50.7
07:20 1018 30.06 847 25.01 17.4 63.4 63 10.5 50.8
07:25 1018 30.06 847 25.01 17.7 63.9 62 10.5 50.8
07:30 1018 30.06 847 25.01 17.6 63.7 63 10.5 50.9
07:35 1018 30.06 847 25.01 17.4 63.3 63 10.4 50.7
07:40 1018 30.06 847 25.01 17.7 63.9 62 10.4 50.8
07:45 1018 30.06 847 25.01 17.9 64.3 63 10.8 51.5
07:50 1018 30.06 847 25.01 17.9 64.3 62 10.6 51.2
07:55 1018 30.06 847 25.01 17.9 64.3 62 10.6 51.1
08:00 1018 30.06 847 25.01 18.2 64.8 62 10.8 51.4
08:05 1018 30.06 848 25.04 18.8 65.9 59 10.7 51.3
08:10 1018 30.06 848 25.04 19.1 66.4 55 10 50
08:15 1018 30.06 848 25.04 18.5 65.3 59 10.4 50.8
08:20 1018 30.06 848 25.04 18.5 65.4 58 10.3 50.5
08:25 1018 30.06 848 25.04 18 64.5 62 10.7 51.3
08:30 1018 30.06 848 25.04 17.8 64.1 61 10.4 50.7
08:35 1018 30.06 848 25.04 17.8 64 62 10.6 51
08:40 1018 30.06 848 25.04 18.3 65 62 11 51.8
08:45 1019 30.09 848 25.04 18.4 65.1 62 11 51.9
08:50 1019 30.09 848 25.04 18.9 66 59 10.7 51.2
08:55 1019 30.09 848 25.04 19.4 67 58 11 51.8
09:00 1019 30.09 848 25.04 19.2 66.5 61 11.6 52.8
09:05 1019 30.09 848 25.04 18.8 65.9 59 10.8 51.5
09:10 1019 30.09 848 25.04 19.6 67.3 58 11.1 52.1
09:15 1019 30.09 848 25.04 20 68.1 56 11 51.8
09:20 1019 30.09 848 25.04 20 68 56 11 51.9
09:25 1019 30.09 848 25.04 19.7 67.5 56 10.7 51.3
09:30 1019 30.09 848 25.04 19.9 67.8 56 10.9 51.7
09:35 1019 30.09 848 25.04 19.9 67.8 55 10.6 51.1
09:40 1019 30.09 848 25.04 19.9 67.8 55 10.8 51.4
09:45 1019 30.09 848 25.04 20 68 54 10.4 50.8
09:50 1019 30.09 848 25.04 20.9 69.5 50 10.2 50.3
09:55 1019 30.09 848 25.04 21.4 70.6 48 10.2 50.3
10:00 1019 30.09 848 25.04 21.3 70.4 48 10 50.1
10:05 1019 30.09 848 25.04 21.1 69.9 48 9.8 49.7
10:10 1019 30.09 848 25.04 21.1 70 46 9.3 48.8
10:15 1019 30.09 848 25.04 21.8 71.2 45 9.6 49.2
10:20 1019 30.09 848 25.04 22.7 72.8 44 9.9 49.9
10:25 1019 30.09 848 25.04 22.6 72.7 45 10.1 50.2
10:30 1019 30.09 848 25.04 21.9 71.4 45 9.6 49.4
10:35 1019 30.09 848 25.04 21.8 71.2 47 10 50
10:40 1019 30.09 848 25.04 21.5 70.8 45 9.4 48.9
10:45 1018 30.06 848 25.04 22.6 72.7 41 8.8 47.9
10:50 1018 30.06 848 25.04 23.5 74.2 41 9.6 49.3
10:55 1018 30.06 848 25.04 23.1 73.7 42 9.9 49.8
11:00 1018 30.06 848 25.04 22.4 72.3 43 9.4 48.8
11:05 1018 30.06 848 25.04 22.9 73.2 41 9.3 48.7
11:10 1018 30.06 848 25.04 23.8 74.8 39 9.2 48.6
11:15 1018 30.06 848 25.04 24 75.1 39 9.3 48.7
11:20 1018 30.06 847 25.01 23.8 74.9 38 8.9 48.1
11:25 1018 30.06 847 25.01 24.3 75.7 37 8.8 47.8
11:30 1018 30.06 847 25.01 24.4 76 36 8.6 47.4
11:35 1018 30.06 847 25.01 25 77 34 8.4 47.1
11:40 1018 30.06 847 25.01 25.4 77.6 34 8.5 47.4
11:45 1018 30.06 847 25.01 24.4 75.8 39 9.8 49.6
11:50 1018 30.06 847 25.01 23.6 74.4 41 9.8 49.6
11:55 1018 30.06 847 25.01 23.7 74.7 39 9.2 48.5
12:00 1018 30.06 847 25.01 23.9 75.1 39 9.3 48.7
12:05 1018 30.06 847 25.01 24 75.3 38 9.1 48.4
12:10 1018 30.06 847 25.01 24.3 75.7 37 9 48.2
12:15 1018 30.06 847 25.01 24.4 75.9 40 10.2 50.3
12:20 1018 30.06 847 25.01 23.9 75 39 9.3 48.8
12:25 1018 30.06 847 25.01 24.5 76.2 36 8.9 48
12:30 1018 30.06 847 25.01 25.3 77.5 35 8.8 47.8
12:35 1018 30.06 847 25.01 25.3 77.5 34 8.7 47.7
12:40 1018 30.06 847 25.01 24.3 75.8 37 9.1 48.4
12:45 1017 30.03 847 25.01 24.2 75.6 38 9.4 48.9
12:50 1017 30.03 847 25.01 24.9 76.8 37 9.6 49.3
12:55 1017 30.03 847 25.01 25 77 33 8 46.4
13:00 1017 30.03 847 25.01 25.4 77.7 33 8.3 46.9
13:05 1017 30.03 847 25.01 25.3 77.5 33 8.2 46.7
13:10 1017 30.03 846 24.98 24.8 76.7 35 8.6 47.4
13:15 1017 30.03 847 25.01 25 77.1 33 7.8 46.1
13:20 1017 30.03 847 25.01 25.6 78.1 31 7.4 45.2
13:25 1017 30.03 846 24.98 25.9 78.6 31 7.8 46.1
13:30 1017 30.03 846 24.98 25.9 78.6 31 7.8 46
13:35 1017 30.03 846 24.98 26.3 79.3 32 8.6 47.5
13:40 1017 30.03 846 24.98 27.5 81.4 30 8.8 47.9
13:45 1017 30.03 846 24.98 27.6 81.7 31 9.4 48.9
13:50 1017 30.03 846 24.98 26.7 80.1 36 10.6 51
13:55 1017 30.03 846 24.98 25.6 78.1 35 9.2 48.5
14:00 1017 30.03 846 24.98 25.4 77.8 30 6.7 44.1
14:05 1017 30.03 846 24.98 26 78.8 31 7.6 45.7
14:10 1017 30.03 846 24.98 27.1 80.7 28 7.3 45.1
14:15 1017 30.03 846 24.98 27.4 81.3 25 6.1 43
14:20 1017 30.03 846 24.98 27 80.6 26 6 42.8
14:25 1017 30.03 846 24.98 27.7 81.8 24 5.4 41.8
14:30 1017 30.03 846 24.98 27.9 82.2 24 5.8 42.5
14:35 1017 30.03 846 24.98 27.1 80.8 25 5.9 42.7
14:40 1017 30.03 846 24.98 26.2 79.1 27 5.8 42.5
14:45 1017 30.03 846 24.98 25.7 78.2 28 6.1 43
14:50 1017 30.03 846 24.98 25.7 78.3 27 5.6 42.1
14:55 1017 30.03 846 24.98 26 78.7 27 5.9 42.6
15:00 1016 30 846 24.98 25.9 78.7 27 5.6 42.1
15:05 1016 30 846 24.98 26.1 78.9 24 4 39.2
15:10 1016 30 846 24.98 26.4 79.4 21 2.5 36.5
15:15 1016 30 845 24.95 26.6 79.9 22 3.5 38.4
15:20 1016 30 845 24.95 27.6 81.6 20 2.6 36.7
15:25 1016 30 845 24.95 27 80.7 22 3.7 38.7
15:30 1016 30 845 24.95 27.1 80.8 22 3.9 39.1
15:35 1016 30 845 24.95 27 80.5 23 4.1 39.3
15:40 1016 30 845 24.95 26.8 80.3 24 4.7 40.5
15:45 1016 30 845 24.95 26.1 79 26 5.6 42.1
15:50 1016 30 845 24.95 25.7 78.3 26 5.2 41.3
15:55 1016 30 845 24.95 25.9 78.5 28 6.2 43.1
16:00 1016 30 845 24.95 25.6 78 29 6.3 43.3
16:05 1016 30 845 24.95 25.4 77.7 29 6.4 43.5
16:10 1016 30 845 24.95 25.2 77.3 31 7.2 45
16:15 1016 30 845 24.95 25.1 77.2 30 6.7 44
16:20 1016 30 845 24.95 25.1 77.3 33 8 46.4
16:25 1016 30 845 24.95 25.1 77.1 34 8.5 47.2
16:30 1016 30 846 24.98 24 75.2 27 4 39.3
16:35 1016 30 846 24.98 22.6 72.7 28 3.2 37.8
16:40 1016 30 846 24.98 22.6 72.6 30 4.2 39.5
16:45 1017 30.03 846 24.98 22.3 72.1 24 0.8 33.5
16:50 1017 30.03 846 24.98 23.3 74 21 -0.1 31.8
16:55 1017 30.03 846 24.98 23.8 74.9 23 1.5 34.7
17:00 1017 30.03 846 24.98 23.7 74.6 25 2.5 36.5
17:05 1017 30.03 846 24.98 23.1 73.6 24 1.5 34.7
17:10 1017 30.03 846 24.98 23 73.4 25 2.4 36.3
17:15 1018 30.06 847 25.01 22.6 72.6 27 3 37.5
17:20 1018 30.06 847 25.01 22.2 72 30 4 39.3
17:25 1018 30.06 847 25.01 21.8 71.3 31 3.9 39.1
17:30 1018 30.06 847 25.01 21.7 71.1 32 4.5 40.1
17:35 1018 30.06 847 25.01 21.2 70.2 36 5.8 42.5
17:40 1018 30.06 847 25.01 20.7 69.2 37 5.5 41.8
17:45 1018 30.06 847 25.01 20.7 69.3 29 2.4 36.3
17:50 1018 30.06 847 25.01 21.5 70.6 35 5.8 42.4
17:55 1018 30.06 848 25.04 21.1 70 36 5.7 42.3
18:00 1019 30.09 848 25.04 19.1 66.4 54 9.8 49.7
18:05 1018 30.06 848 25.04 17.8 64.1 56 9.1 48.4
18:10 1018 30.06 848 25.04 17.4 63.4 58 9.1 48.4
18:15 1019 30.09 848 25.04 17.3 63.1 54 8.1 46.6
18:20 1019 30.09 848 25.04 17.9 64.2 48 6.9 44.5
18:25 1019 30.09 848 25.04 18.5 65.3 47 6.9 44.5
18:30 1019 30.09 848 25.04 18.6 65.5 49 7.7 45.9
18:35 1019 30.09 848 25.04 18.5 65.2 48 7.4 45.2
18:40 1019 30.09 848 25.04 18.8 65.8 42 5.7 42.2
18:45 1019 30.09 848 25.04 19.3 66.7 53 9.6 49.3
18:50 1020 30.12 849 25.07 18.5 65.3 48 7.4 45.3
18:55 1020 30.12 849 25.07 18.7 65.7 49 7.9 46.1
19:00 1020 30.12 849 25.07 17.6 63.7 59 9.5 49.1
19:05 1020 30.12 849 25.07 16.7 62.1 58 8.5 47.3
19:10 1020 30.12 849 25.07 17 62.6 55 8 46.4
19:15 1020 30.12 849 25.07 17.3 63.1 52 7.4 45.3
19:20 1020 30.12 850 25.1 17.5 63.5 51 7.4 45.4
19:25 1021 30.15 850 25.1 17.4 63.3 52 7.6 45.7
19:30 1021 30.15 850 25.1 17.2 62.9 53 7.6 45.6
19:35 1021 30.15 850 25.1 17.1 62.8 54 7.7 45.9
19:40 1021 30.15 850 25.1 17 62.5 58 8.7 47.6
19:45 1021 30.15 850 25.1 16.7 62.1 57 8.3 46.9
19:50 1021 30.15 850 25.1 16.6 62 59 8.6 47.5
19:55 1021 30.15 850 25.1 16.7 62.1 60 9 48.2
20:00 1021 30.15 850 25.1 16.3 61.4 63 9.2 48.6
20:05 1021 30.15 850 25.1 16.1 60.9 64 9.3 48.7
20:10 1021 30.15 850 25.1 15.9 60.6 63 9 48.2
20:15 1021 30.15 850 25.1 15.9 60.7 64 9.1 48.4
20:20 1021 30.15 850 25.1 15.7 60.3 66 9.5 49
20:25 1021 30.15 850 25.1 15.5 60 61 8.1 46.6
20:30 1021 30.15 850 25.1 16.1 61 57 7.8 46
20:35 1021 30.15 850 25.1 16.4 61.5 55 7.5 45.4
20:40 1021 30.15 850 25.1 16.6 62 57 8.2 46.7
20:45 1021 30.15 850 25.1 16.5 61.7 61 9 48.3
20:50 1021 30.15 850 25.1 16 60.8 64 9.2 48.6
20:55 1021 30.15 850 25.1 15.8 60.4 63 8.7 47.7
21:00 1021 30.15 850 25.1 15.8 60.4 62 8.7 47.6
21:05 1021 30.15 850 25.1 15.8 60.5 63 8.8 47.8
21:10 1021 30.15 850 25.1 15.8 60.4 63 8.8 47.9
21:15 1021 30.15 850 25.1 15.7 60.3 63 8.8 47.9
21:20 1020 30.12 850 25.1 15.8 60.5 61 8.3 47
21:25 1020 30.12 850 25.1 15.9 60.6 62 8.8 47.8
21:30 1020 30.12 850 25.1 15.8 60.4 63 8.8 47.9
21:35 1020 30.12 850 25.1 15.7 60.2 64 8.9 48
21:40 1020 30.12 850 25.1 15.7 60.2 63 8.7 47.6
21:45 1021 30.15 850 25.1 15.7 60.3 65 9.2 48.6
21:50 1021 30.15 850 25.1 15.9 60.6 63 8.9 48.1
21:55 1020 30.12 850 25.1 15.6 60.1 64 9 48.2
22:00 1020 30.12 850 25.1 15.5 59.8 63 8.5 47.4
22:05 1020 30.12 849 25.07 15.6 60 63 8.6 47.5
22:10 1020 30.12 850 25.1 15.6 60 63 8.6 47.4
22:15 1020 30.12 849 25.07 15.6 60 64 8.7 47.7
22:20 1020 30.12 849 25.07 15.5 59.9 64 8.8 47.8
22:25 1020 30.12 849 25.07 15.5 59.9 62 8.3 46.9
22:30 1020 30.12 849 25.07 15.8 60.5 59 7.9 46.3
22:35 1020 30.12 849 25.07 16.1 60.9 58 7.8 46
22:40 1020 30.12 849 25.07 16.1 61 58 8 46.4
22:45 1020 30.12 849 25.07 16 60.7 59 8.1 46.6
22:50 1020 30.12 849 25.07 15.8 60.4 60 8.2 46.8
22:55 1020 30.12 849 25.07 15.7 60.3 62 8.4 47.2
23:00 1020 30.12 849 25.07 15.6 60.1 61 8.2 46.7
23:05 1020 30.12 849 25.07 15.6 60.2 58 7.6 45.7
23:10 1020 30.12 849 25.07 16 60.7 58 7.8 46.1
23:15 1020 30.12 849 25.07 16 60.9 57 7.7 45.8
23:20 1020 30.12 849 25.07 16.1 60.9 58 7.8 46.1
23:25 1020 30.12 849 25.07 16 60.9 57 7.5 45.5
23:30 1020 30.12 849 25.07 16.1 60.9 57 7.7 45.8
23:35 1020 30.12 849 25.07 16 60.7 58 7.8 46.1
23:40 1020 30.12 849 25.07 15.8 60.5 57 7.5 45.5
23:45 1019 30.09 849 25.07 15.7 60.3 57 7.2 45
23:50 1019 30.09 849 25.07 15.8 60.5 57 7.4 45.3
23:55 1019 30.09 849 25.07 15.8 60.4 57 7.3 45.1
24:00 1020 30.12 849 25.07 15.7 60.3 57 7.4 45.3